HBA weather

Hobart International Airport
Hobart, Tasmania, Australia

Public forecast

Using degrees Celsius for public forecast. Weather courtesy of forecast.io.

METAR (pilot weather report)

Retrieved 2017/12/11 21:30 UTC (22 minutes ago):

YMHB 112130Z 32008KT 290V350 9999 FEW040 18/10 Q1016 RF00.0/000.0

TAF (pilot weather forecast)

Retrieved 2017/12/11 18:36 UTC (3 hours ago):

TAF YMHB 111723Z 1118/1218 32010KT CAVOK FM120200 14014KT CAVOK FM121000 08010KT 9999 SCT010 FM121200 06010KT 9999 SCT010 BKN020